sensor_id;sensor_type;location;lat;lon;timestamp;temperature;humidity
10296;DHT22;5193;51.032;6.356;2024-01-07T00:02:06;1.70;99.90
10296;DHT22;5193;51.032;6.356;2024-01-07T00:04:35;1.80;99.90
10296;DHT22;5193;51.032;6.356;2024-01-07T00:07:00;1.70;99.90
10296;DHT22;5193;51.032;6.356;2024-01-07T00:09:26;1.70;99.90
10296;DHT22;5193;51.032;6.356;2024-01-07T00:11:51;1.70;99.90
10296;DHT22;5193;51.032;6.356;2024-01-07T00:14:19;1.70;99.90
10296;DHT22;5193;51.032;6.356;2024-01-07T00:16:45;1.80;99.90
10296;DHT22;5193;51.032;6.356;2024-01-07T00:19:11;1.70;99.90
10296;DHT22;5193;51.032;6.356;2024-01-07T00:21:37;1.70;99.90
10296;DHT22;5193;51.032;6.356;2024-01-07T00:24:02;1.70;99.90
10296;DHT22;5193;51.032;6.356;2024-01-07T00:26:28;1.70;99.90
10296;DHT22;5193;51.032;6.356;2024-01-07T00:28:53;1.70;99.90
10296;DHT22;5193;51.032;6.356;2024-01-07T00:31:19;1.70;99.90
10296;DHT22;5193;51.032;6.356;2024-01-07T00:33:45;1.70;99.90
10296;DHT22;5193;51.032;6.356;2024-01-07T00:36:10;1.70;99.90
10296;DHT22;5193;51.032;6.356;2024-01-07T00:38:36;1.70;99.90
10296;DHT22;5193;51.032;6.356;2024-01-07T00:41:02;1.70;99.90
10296;DHT22;5193;51.032;6.356;2024-01-07T00:43:28;1.70;99.90
10296;DHT22;5193;51.032;6.356;2024-01-07T00:45:56;1.70;99.90
10296;DHT22;5193;51.032;6.356;2024-01-07T00:48:22;1.70;99.90
10296;DHT22;5193;51.032;6.356;2024-01-07T00:50:48;1.70;99.90
10296;DHT22;5193;51.032;6.356;2024-01-07T00:53:13;1.70;99.90
10296;DHT22;5193;51.032;6.356;2024-01-07T00:55:39;1.70;99.90
10296;DHT22;5193;51.032;6.356;2024-01-07T00:58:04;1.70;99.90
10296;DHT22;5193;51.032;6.356;2024-01-07T01:00:31;1.70;99.90
10296;DHT22;5193;51.032;6.356;2024-01-07T01:02:56;1.70;99.90
10296;DHT22;5193;51.032;6.356;2024-01-07T01:05:22;1.70;99.90
10296;DHT22;5193;51.032;6.356;2024-01-07T01:07:48;1.80;99.90
10296;DHT22;5193;51.032;6.356;2024-01-07T01:10:13;1.70;99.90
10296;DHT22;5193;51.032;6.356;2024-01-07T01:12:42;1.80;99.90
10296;DHT22;5193;51.032;6.356;2024-01-07T01:15:08;1.80;99.90
10296;DHT22;5193;51.032;6.356;2024-01-07T01:17:34;1.80;99.90
10296;DHT22;5193;51.032;6.356;2024-01-07T01:19:59;1.80;99.90
10296;DHT22;5193;51.032;6.356;2024-01-07T01:22:25;1.80;99.90
10296;DHT22;5193;51.032;6.356;2024-01-07T01:24:52;1.80;99.90
10296;DHT22;5193;51.032;6.356;2024-01-07T01:27:19;1.80;99.90
10296;DHT22;5193;51.032;6.356;2024-01-07T01:29:44;1.80;99.90
10296;DHT22;5193;51.032;6.356;2024-01-07T01:32:10;1.80;99.90
10296;DHT22;5193;51.032;6.356;2024-01-07T01:34:36;1.80;99.90
10296;DHT22;5193;51.032;6.356;2024-01-07T01:37:02;1.80;99.90
10296;DHT22;5193;51.032;6.356;2024-01-07T01:39:28;1.90;99.90
10296;DHT22;5193;51.032;6.356;2024-01-07T01:41:54;1.90;99.90
10296;DHT22;5193;51.032;6.356;2024-01-07T01:44:22;1.90;99.90
10296;DHT22;5193;51.032;6.356;2024-01-07T01:46:47;1.90;99.90
10296;DHT22;5193;51.032;6.356;2024-01-07T01:49:18;1.90;99.90
10296;DHT22;5193;51.032;6.356;2024-01-07T01:51:43;1.90;99.90
10296;DHT22;5193;51.032;6.356;2024-01-07T01:54:09;1.90;99.90
10296;DHT22;5193;51.032;6.356;2024-01-07T01:56:36;1.90;99.90
10296;DHT22;5193;51.032;6.356;2024-01-07T01:59:01;1.90;99.90
10296;DHT22;5193;51.032;6.356;2024-01-07T02:01:27;1.90;99.90
10296;DHT22;5193;51.032;6.356;2024-01-07T02:03:53;1.90;99.90
10296;DHT22;5193;51.032;6.356;2024-01-07T02:06:21;1.90;99.90
10296;DHT22;5193;51.032;6.356;2024-01-07T02:08:50;1.90;99.90
10296;DHT22;5193;51.032;6.356;2024-01-07T02:13:42;1.90;99.90
10296;DHT22;5193;51.032;6.356;2024-01-07T02:16:07;1.90;99.90
10296;DHT22;5193;51.032;6.356;2024-01-07T02:18:33;1.90;99.90
10296;DHT22;5193;51.032;6.356;2024-01-07T02:20:59;1.90;99.90
10296;DHT22;5193;51.032;6.356;2024-01-07T02:23:24;1.90;99.90
10296;DHT22;5193;51.032;6.356;2024-01-07T02:25:50;1.90;99.90
10296;DHT22;5193;51.032;6.356;2024-01-07T02:28:16;2.00;99.90
10296;DHT22;5193;51.032;6.356;2024-01-07T02:30:41;2.00;99.90
10296;DHT22;5193;51.032;6.356;2024-01-07T02:33:07;2.00;99.90
10296;DHT22;5193;51.032;6.356;2024-01-07T02:35:32;2.00;99.90
10296;DHT22;5193;51.032;6.356;2024-01-07T02:37:58;2.00;99.90
10296;DHT22;5193;51.032;6.356;2024-01-07T02:40:23;2.00;99.90
10296;DHT22;5193;51.032;6.356;2024-01-07T02:42:49;1.90;99.90
10296;DHT22;5193;51.032;6.356;2024-01-07T02:45:15;2.00;99.90
10296;DHT22;5193;51.032;6.356;2024-01-07T02:47:40;1.90;99.90
10296;DHT22;5193;51.032;6.356;2024-01-07T02:50:06;2.00;99.90
10296;DHT22;5193;51.032;6.356;2024-01-07T02:52:32;2.00;99.90
10296;DHT22;5193;51.032;6.356;2024-01-07T02:54:58;2.00;99.90
10296;DHT22;5193;51.032;6.356;2024-01-07T02:57:24;1.90;99.90
10296;DHT22;5193;51.032;6.356;2024-01-07T02:59:49;2.00;99.90
10296;DHT22;5193;51.032;6.356;2024-01-07T03:02:15;2.00;99.90
10296;DHT22;5193;51.032;6.356;2024-01-07T03:04:40;2.00;99.90
10296;DHT22;5193;51.032;6.356;2024-01-07T03:07:06;2.00;99.90
10296;DHT22;5193;51.032;6.356;2024-01-07T03:09:31;1.90;99.90
10296;DHT22;5193;51.032;6.356;2024-01-07T03:11:57;2.00;99.90
10296;DHT22;5193;51.032;6.356;2024-01-07T03:14:24;2.00;99.90
10296;DHT22;5193;51.032;6.356;2024-01-07T03:16:50;2.00;99.90
10296;DHT22;5193;51.032;6.356;2024-01-07T03:19:16;2.00;99.90
10296;DHT22;5193;51.032;6.356;2024-01-07T03:21:41;2.00;99.90
10296;DHT22;5193;51.032;6.356;2024-01-07T03:24:08;1.90;99.90
10296;DHT22;5193;51.032;6.356;2024-01-07T03:26:34;1.90;99.90
10296;DHT22;5193;51.032;6.356;2024-01-07T03:29:00;2.00;99.90
10296;DHT22;5193;51.032;6.356;2024-01-07T03:31:27;1.90;99.90
10296;DHT22;5193;51.032;6.356;2024-01-07T03:33:53;1.90;99.90
10296;DHT22;5193;51.032;6.356;2024-01-07T03:36:18;2.00;99.90
10296;DHT22;5193;51.032;6.356;2024-01-07T03:38:44;2.00;99.90
10296;DHT22;5193;51.032;6.356;2024-01-07T03:41:16;1.90;99.90
10296;DHT22;5193;51.032;6.356;2024-01-07T03:43:43;1.90;99.90
10296;DHT22;5193;51.032;6.356;2024-01-07T03:46:08;1.90;99.90
10296;DHT22;5193;51.032;6.356;2024-01-07T03:48:34;1.90;99.90
10296;DHT22;5193;51.032;6.356;2024-01-07T03:50:59;1.90;99.90
10296;DHT22;5193;51.032;6.356;2024-01-07T03:53:25;1.90;99.90
10296;DHT22;5193;51.032;6.356;2024-01-07T03:55:51;1.90;99.90
10296;DHT22;5193;51.032;6.356;2024-01-07T03:58:16;1.90;99.90
10296;DHT22;5193;51.032;6.356;2024-01-07T04:00:42;1.90;99.90
10296;DHT22;5193;51.032;6.356;2024-01-07T04:03:07;1.90;99.90
10296;DHT22;5193;51.032;6.356;2024-01-07T04:05:33;1.90;99.90
10296;DHT22;5193;51.032;6.356;2024-01-07T04:08:02;1.90;99.90
10296;DHT22;5193;51.032;6.356;2024-01-07T04:10:27;1.90;99.90
10296;DHT22;5193;51.032;6.356;2024-01-07T04:12:53;2.00;99.90
10296;DHT22;5193;51.032;6.356;2024-01-07T04:15:20;1.90;99.90
10296;DHT22;5193;51.032;6.356;2024-01-07T04:17:45;2.00;99.90
10296;DHT22;5193;51.032;6.356;2024-01-07T04:20:14;2.00;99.90
10296;DHT22;5193;51.032;6.356;2024-01-07T04:22:40;2.00;99.90
10296;DHT22;5193;51.032;6.356;2024-01-07T04:25:06;1.90;99.90
10296;DHT22;5193;51.032;6.356;2024-01-07T04:27:36;2.00;99.90
10296;DHT22;5193;51.032;6.356;2024-01-07T04:30:02;2.00;99.90
10296;DHT22;5193;51.032;6.356;2024-01-07T04:32:27;1.90;99.90
10296;DHT22;5193;51.032;6.356;2024-01-07T04:34:53;1.90;99.90
10296;DHT22;5193;51.032;6.356;2024-01-07T04:37:19;2.00;99.90
10296;DHT22;5193;51.032;6.356;2024-01-07T04:39:44;2.00;99.90
10296;DHT22;5193;51.032;6.356;2024-01-07T04:42:10;1.90;99.90
10296;DHT22;5193;51.032;6.356;2024-01-07T04:44:36;2.00;99.90
10296;DHT22;5193;51.032;6.356;2024-01-07T04:47:01;2.00;99.90
10296;DHT22;5193;51.032;6.356;2024-01-07T04:49:27;1.90;99.90
10296;DHT22;5193;51.032;6.356;2024-01-07T04:51:52;1.90;99.90
10296;DHT22;5193;51.032;6.356;2024-01-07T04:54:18;2.00;99.90
10296;DHT22;5193;51.032;6.356;2024-01-07T04:56:44;1.90;99.90
10296;DHT22;5193;51.032;6.356;2024-01-07T04:59:09;1.90;99.90
10296;DHT22;5193;51.032;6.356;2024-01-07T05:01:35;1.90;99.90
10296;DHT22;5193;51.032;6.356;2024-01-07T05:04:02;1.90;99.90
10296;DHT22;5193;51.032;6.356;2024-01-07T05:06:28;1.90;99.90
10296;DHT22;5193;51.032;6.356;2024-01-07T05:08:57;1.90;99.90
10296;DHT22;5193;51.032;6.356;2024-01-07T05:11:22;1.90;99.90
10296;DHT22;5193;51.032;6.356;2024-01-07T05:13:48;1.90;99.90
10296;DHT22;5193;51.032;6.356;2024-01-07T05:16:20;1.90;99.90
10296;DHT22;5193;51.032;6.356;2024-01-07T05:18:45;1.80;99.90
10296;DHT22;5193;51.032;6.356;2024-01-07T05:21:22;1.80;99.90
10296;DHT22;5193;51.032;6.356;2024-01-07T05:23:51;1.80;99.90
10296;DHT22;5193;51.032;6.356;2024-01-07T05:26:16;1.80;99.90
10296;DHT22;5193;51.032;6.356;2024-01-07T05:28:43;1.80;99.90
10296;DHT22;5193;51.032;6.356;2024-01-07T05:31:18;1.90;99.90
10296;DHT22;5193;51.032;6.356;2024-01-07T05:33:45;1.80;99.90
10296;DHT22;5193;51.032;6.356;2024-01-07T05:36:12;1.80;99.90
10296;DHT22;5193;51.032;6.356;2024-01-07T05:38:38;1.80;99.90
10296;DHT22;5193;51.032;6.356;2024-01-07T05:41:07;1.80;99.90
10296;DHT22;5193;51.032;6.356;2024-01-07T05:43:34;1.80;99.90
10296;DHT22;5193;51.032;6.356;2024-01-07T05:46:01;1.80;99.90
10296;DHT22;5193;51.032;6.356;2024-01-07T05:48:26;1.80;99.90
10296;DHT22;5193;51.032;6.356;2024-01-07T05:50:52;1.80;99.90
10296;DHT22;5193;51.032;6.356;2024-01-07T05:53:19;1.80;99.90
10296;DHT22;5193;51.032;6.356;2024-01-07T05:55:45;1.80;99.90
10296;DHT22;5193;51.032;6.356;2024-01-07T05:58:11;1.80;99.90
10296;DHT22;5193;51.032;6.356;2024-01-07T06:00:36;1.80;99.90
10296;DHT22;5193;51.032;6.356;2024-01-07T06:03:03;1.80;99.90
10296;DHT22;5193;51.032;6.356;2024-01-07T06:05:29;1.80;99.90
10296;DHT22;5193;51.032;6.356;2024-01-07T06:07:58;1.80;99.90
10296;DHT22;5193;51.032;6.356;2024-01-07T06:10:23;1.70;99.90
10296;DHT22;5193;51.032;6.356;2024-01-07T06:12:49;1.70;99.90
10296;DHT22;5193;51.032;6.356;2024-01-07T06:15:14;1.70;99.90
10296;DHT22;5193;51.032;6.356;2024-01-07T06:17:40;1.70;99.90
10296;DHT22;5193;51.032;6.356;2024-01-07T06:20:06;1.70;99.90
10296;DHT22;5193;51.032;6.356;2024-01-07T06:22:33;1.70;99.90
10296;DHT22;5193;51.032;6.356;2024-01-07T06:24:59;1.60;99.90
10296;DHT22;5193;51.032;6.356;2024-01-07T06:27:24;1.70;99.90
10296;DHT22;5193;51.032;6.356;2024-01-07T06:29:50;1.60;99.90
10296;DHT22;5193;51.032;6.356;2024-01-07T06:32:15;1.60;99.90
10296;DHT22;5193;51.032;6.356;2024-01-07T06:34:41;1.60;99.90
10296;DHT22;5193;51.032;6.356;2024-01-07T06:37:06;1.60;99.90
10296;DHT22;5193;51.032;6.356;2024-01-07T06:39:34;1.50;99.90
10296;DHT22;5193;51.032;6.356;2024-01-07T06:41:59;1.50;99.90
10296;DHT22;5193;51.032;6.356;2024-01-07T06:44:25;1.50;99.90
10296;DHT22;5193;51.032;6.356;2024-01-07T06:46:51;1.50;99.90
10296;DHT22;5193;51.032;6.356;2024-01-07T06:49:16;1.50;99.90
10296;DHT22;5193;51.032;6.356;2024-01-07T06:51:42;1.50;99.90
10296;DHT22;5193;51.032;6.356;2024-01-07T06:54:08;1.50;99.90
10296;DHT22;5193;51.032;6.356;2024-01-07T06:56:33;1.50;99.90
10296;DHT22;5193;51.032;6.356;2024-01-07T06:58:59;1.50;99.90
10296;DHT22;5193;51.032;6.356;2024-01-07T07:01:25;1.50;99.90
10296;DHT22;5193;51.032;6.356;2024-01-07T07:03:51;1.50;99.90
10296;DHT22;5193;51.032;6.356;2024-01-07T07:06:17;1.40;99.90
10296;DHT22;5193;51.032;6.356;2024-01-07T07:08:42;1.50;99.90
10296;DHT22;5193;51.032;6.356;2024-01-07T07:11:08;1.50;99.90
10296;DHT22;5193;51.032;6.356;2024-01-07T07:13:35;1.40;99.90
10296;DHT22;5193;51.032;6.356;2024-01-07T07:16:01;1.40;99.90
10296;DHT22;5193;51.032;6.356;2024-01-07T07:18:26;1.40;99.90
10296;DHT22;5193;51.032;6.356;2024-01-07T07:20:53;1.40;99.90
10296;DHT22;5193;51.032;6.356;2024-01-07T07:23:19;1.40;99.90
10296;DHT22;5193;51.032;6.356;2024-01-07T07:25:44;1.40;99.90
10296;DHT22;5193;51.032;6.356;2024-01-07T07:28:10;1.40;99.90
10296;DHT22;5193;51.032;6.356;2024-01-07T07:30:36;1.40;99.90
10296;DHT22;5193;51.032;6.356;2024-01-07T07:33:02;1.40;99.90
10296;DHT22;5193;51.032;6.356;2024-01-07T07:35:31;1.40;99.90
10296;DHT22;5193;51.032;6.356;2024-01-07T07:37:56;1.40;99.90
10296;DHT22;5193;51.032;6.356;2024-01-07T07:40:22;1.40;99.90
10296;DHT22;5193;51.032;6.356;2024-01-07T07:42:48;1.40;99.90
10296;DHT22;5193;51.032;6.356;2024-01-07T07:45:13;1.30;99.90
10296;DHT22;5193;51.032;6.356;2024-01-07T07:47:39;1.30;99.90
10296;DHT22;5193;51.032;6.356;2024-01-07T07:50:10;1.30;99.90
10296;DHT22;5193;51.032;6.356;2024-01-07T07:52:36;1.30;99.90
10296;DHT22;5193;51.032;6.356;2024-01-07T07:55:01;1.30;99.90
10296;DHT22;5193;51.032;6.356;2024-01-07T07:57:27;1.30;99.90
10296;DHT22;5193;51.032;6.356;2024-01-07T07:59:54;1.30;99.90
10296;DHT22;5193;51.032;6.356;2024-01-07T08:02:19;1.20;99.90
10296;DHT22;5193;51.032;6.356;2024-01-07T08:04:47;1.30;99.90
10296;DHT22;5193;51.032;6.356;2024-01-07T08:07:12;1.20;99.90
10296;DHT22;5193;51.032;6.356;2024-01-07T08:09:38;1.30;99.90
10296;DHT22;5193;51.032;6.356;2024-01-07T08:12:05;1.20;99.90
10296;DHT22;5193;51.032;6.356;2024-01-07T08:14:31;1.30;99.90
10296;DHT22;5193;51.032;6.356;2024-01-07T08:16:57;1.20;99.90
10296;DHT22;5193;51.032;6.356;2024-01-07T08:19:23;1.20;99.90
10296;DHT22;5193;51.032;6.356;2024-01-07T08:21:49;1.20;99.90
10296;DHT22;5193;51.032;6.356;2024-01-07T08:24:14;1.20;99.90
10296;DHT22;5193;51.032;6.356;2024-01-07T08:26:43;1.30;99.90
10296;DHT22;5193;51.032;6.356;2024-01-07T08:29:08;1.20;99.90
10296;DHT22;5193;51.032;6.356;2024-01-07T08:31:34;1.30;99.90
10296;DHT22;5193;51.032;6.356;2024-01-07T08:34:00;1.30;99.90
10296;DHT22;5193;51.032;6.356;2024-01-07T08:36:27;1.20;99.90
10296;DHT22;5193;51.032;6.356;2024-01-07T08:38:52;1.30;99.90
10296;DHT22;5193;51.032;6.356;2024-01-07T08:41:21;1.30;99.90
10296;DHT22;5193;51.032;6.356;2024-01-07T08:43:46;1.20;99.90
10296;DHT22;5193;51.032;6.356;2024-01-07T08:46:12;1.20;99.90
10296;DHT22;5193;51.032;6.356;2024-01-07T08:48:39;1.20;99.90
10296;DHT22;5193;51.032;6.356;2024-01-07T08:51:04;1.20;99.90
10296;DHT22;5193;51.032;6.356;2024-01-07T08:53:31;1.20;99.90
10296;DHT22;5193;51.032;6.356;2024-01-07T08:55:57;1.20;99.90
10296;DHT22;5193;51.032;6.356;2024-01-07T08:58:24;1.20;99.90
10296;DHT22;5193;51.032;6.356;2024-01-07T09:00:49;1.10;99.90
10296;DHT22;5193;51.032;6.356;2024-01-07T09:03:15;1.20;99.90
10296;DHT22;5193;51.032;6.356;2024-01-07T09:05:43;1.10;99.90
10296;DHT22;5193;51.032;6.356;2024-01-07T09:08:09;1.10;99.90
10296;DHT22;5193;51.032;6.356;2024-01-07T09:10:44;1.20;99.90
10296;DHT22;5193;51.032;6.356;2024-01-07T09:16:53;1.10;99.90
10296;DHT22;5193;51.032;6.356;2024-01-07T09:19:30;1.10;99.90
10296;DHT22;5193;51.032;6.356;2024-01-07T09:22:00;1.10;99.90
10296;DHT22;5193;51.032;6.356;2024-01-07T09:31:41;1.00;99.90
10296;DHT22;5193;51.032;6.356;2024-01-07T09:34:30;1.00;99.90
10296;DHT22;5193;51.032;6.356;2024-01-07T09:40:40;1.00;99.90
10296;DHT22;5193;51.032;6.356;2024-01-07T09:43:09;1.00;99.90
10296;DHT22;5193;51.032;6.356;2024-01-07T09:45:36;1.00;99.90
10296;DHT22;5193;51.032;6.356;2024-01-07T09:48:04;1.00;99.90
10296;DHT22;5193;51.032;6.356;2024-01-07T09:50:33;1.00;99.90
10296;DHT22;5193;51.032;6.356;2024-01-07T09:52:58;1.00;99.90
10296;DHT22;5193;51.032;6.356;2024-01-07T09:55:37;1.00;99.90
10296;DHT22;5193;51.032;6.356;2024-01-07T09:58:03;0.90;99.90
10296;DHT22;5193;51.032;6.356;2024-01-07T10:00:33;0.90;99.90
10296;DHT22;5193;51.032;6.356;2024-01-07T10:02:58;1.00;99.90
10296;DHT22;5193;51.032;6.356;2024-01-07T10:05:24;0.90;99.90
10296;DHT22;5193;51.032;6.356;2024-01-07T10:07:49;0.90;99.90
10296;DHT22;5193;51.032;6.356;2024-01-07T10:10:18;0.90;99.90
10296;DHT22;5193;51.032;6.356;2024-01-07T10:12:48;0.90;99.90
10296;DHT22;5193;51.032;6.356;2024-01-07T10:15:15;0.90;99.90
10296;DHT22;5193;51.032;6.356;2024-01-07T10:17:42;0.90;99.90
10296;DHT22;5193;51.032;6.356;2024-01-07T10:20:08;0.90;99.90
10296;DHT22;5193;51.032;6.356;2024-01-07T10:22:38;1.00;99.90
10296;DHT22;5193;51.032;6.356;2024-01-07T10:25:04;1.00;99.90
10296;DHT22;5193;51.032;6.356;2024-01-07T10:27:39;0.90;99.90
10296;DHT22;5193;51.032;6.356;2024-01-07T10:30:05;1.00;99.90
10296;DHT22;5193;51.032;6.356;2024-01-07T10:32:31;1.00;99.90
10296;DHT22;5193;51.032;6.356;2024-01-07T10:35:04;1.00;99.90
10296;DHT22;5193;51.032;6.356;2024-01-07T10:37:30;1.00;99.90
10296;DHT22;5193;51.032;6.356;2024-01-07T10:39:58;1.00;99.90
10296;DHT22;5193;51.032;6.356;2024-01-07T10:42:30;1.00;99.90
10296;DHT22;5193;51.032;6.356;2024-01-07T10:44:57;1.00;99.90
10296;DHT22;5193;51.032;6.356;2024-01-07T10:47:23;0.90;99.90
10296;DHT22;5193;51.032;6.356;2024-01-07T10:49:50;0.90;99.90
10296;DHT22;5193;51.032;6.356;2024-01-07T10:52:16;0.90;99.90
10296;DHT22;5193;51.032;6.356;2024-01-07T10:54:44;0.90;99.90
10296;DHT22;5193;51.032;6.356;2024-01-07T10:57:27;0.90;99.90
10296;DHT22;5193;51.032;6.356;2024-01-07T10:59:59;0.90;99.90
10296;DHT22;5193;51.032;6.356;2024-01-07T11:02:26;0.90;99.90
10296;DHT22;5193;51.032;6.356;2024-01-07T11:05:19;0.90;99.90
10296;DHT22;5193;51.032;6.356;2024-01-07T11:07:57;0.90;99.90
10296;DHT22;5193;51.032;6.356;2024-01-07T11:10:34;0.90;99.90
10296;DHT22;5193;51.032;6.356;2024-01-07T11:13:00;0.90;99.90
10296;DHT22;5193;51.032;6.356;2024-01-07T11:18:19;0.90;99.90
10296;DHT22;5193;51.032;6.356;2024-01-07T11:20:46;0.90;99.90
10296;DHT22;5193;51.032;6.356;2024-01-07T11:23:32;0.90;99.90
10296;DHT22;5193;51.032;6.356;2024-01-07T11:26:06;0.90;99.90
10296;DHT22;5193;51.032;6.356;2024-01-07T11:28:45;1.00;99.90
10296;DHT22;5193;51.032;6.356;2024-01-07T11:31:12;0.90;99.90
10296;DHT22;5193;51.032;6.356;2024-01-07T11:33:37;0.90;99.90
10296;DHT22;5193;51.032;6.356;2024-01-07T11:36:05;0.90;99.90
10296;DHT22;5193;51.032;6.356;2024-01-07T11:38:37;1.00;99.90
10296;DHT22;5193;51.032;6.356;2024-01-07T11:41:05;0.90;99.90
10296;DHT22;5193;51.032;6.356;2024-01-07T11:43:32;0.90;99.90
10296;DHT22;5193;51.032;6.356;2024-01-07T11:46:00;0.90;99.90
10296;DHT22;5193;51.032;6.356;2024-01-07T11:48:25;0.90;99.90
10296;DHT22;5193;51.032;6.356;2024-01-07T11:50:57;0.90;99.90
10296;DHT22;5193;51.032;6.356;2024-01-07T11:53:23;0.90;99.90
10296;DHT22;5193;51.032;6.356;2024-01-07T11:55:48;0.90;99.90
10296;DHT22;5193;51.032;6.356;2024-01-07T11:58:14;0.80;99.90
10296;DHT22;5193;51.032;6.356;2024-01-07T12:00:39;0.90;99.90
10296;DHT22;5193;51.032;6.356;2024-01-07T12:03:05;0.80;99.90
10296;DHT22;5193;51.032;6.356;2024-01-07T12:05:37;0.90;99.90
10296;DHT22;5193;51.032;6.356;2024-01-07T12:08:02;0.80;99.90
10296;DHT22;5193;51.032;6.356;2024-01-07T12:10:28;0.80;99.90
10296;DHT22;5193;51.032;6.356;2024-01-07T12:12:54;0.80;99.90
10296;DHT22;5193;51.032;6.356;2024-01-07T12:15:20;0.80;99.90
10296;DHT22;5193;51.032;6.356;2024-01-07T12:18:01;0.80;99.90
10296;DHT22;5193;51.032;6.356;2024-01-07T12:20:27;0.80;99.90
10296;DHT22;5193;51.032;6.356;2024-01-07T12:22:57;0.80;99.90
10296;DHT22;5193;51.032;6.356;2024-01-07T12:25:24;0.80;99.90
10296;DHT22;5193;51.032;6.356;2024-01-07T12:27:51;0.80;99.90
10296;DHT22;5193;51.032;6.356;2024-01-07T12:30:30;0.80;99.90
10296;DHT22;5193;51.032;6.356;2024-01-07T12:32:56;0.80;99.90
10296;DHT22;5193;51.032;6.356;2024-01-07T12:35:25;0.70;99.90
10296;DHT22;5193;51.032;6.356;2024-01-07T12:37:52;0.80;99.90
10296;DHT22;5193;51.032;6.356;2024-01-07T12:40:19;0.70;99.90
10296;DHT22;5193;51.032;6.356;2024-01-07T12:42:46;0.70;99.90
10296;DHT22;5193;51.032;6.356;2024-01-07T12:45:14;0.70;99.90
10296;DHT22;5193;51.032;6.356;2024-01-07T12:47:40;0.70;99.90
10296;DHT22;5193;51.032;6.356;2024-01-07T12:50:09;0.70;99.90
10296;DHT22;5193;51.032;6.356;2024-01-07T12:52:36;0.70;99.90
10296;DHT22;5193;51.032;6.356;2024-01-07T12:55:03;0.60;99.90
10296;DHT22;5193;51.032;6.356;2024-01-07T12:57:29;0.60;99.90
10296;DHT22;5193;51.032;6.356;2024-01-07T12:59:55;0.60;99.90
10296;DHT22;5193;51.032;6.356;2024-01-07T13:02:20;0.60;99.90
10296;DHT22;5193;51.032;6.356;2024-01-07T13:04:46;0.60;99.90
10296;DHT22;5193;51.032;6.356;2024-01-07T13:07:11;0.60;99.90
10296;DHT22;5193;51.032;6.356;2024-01-07T13:09:37;0.60;99.90
10296;DHT22;5193;51.032;6.356;2024-01-07T13:12:05;0.60;99.90
10296;DHT22;5193;51.032;6.356;2024-01-07T13:14:32;0.60;99.90
10296;DHT22;5193;51.032;6.356;2024-01-07T13:16:58;0.60;99.90
10296;DHT22;5193;51.032;6.356;2024-01-07T13:22:40;0.60;99.90
10296;DHT22;5193;51.032;6.356;2024-01-07T13:25:07;0.60;99.90
10296;DHT22;5193;51.032;6.356;2024-01-07T13:27:33;0.60;99.90
10296;DHT22;5193;51.032;6.356;2024-01-07T13:30:00;0.50;99.90
10296;DHT22;5193;51.032;6.356;2024-01-07T13:32:25;0.50;99.90
10296;DHT22;5193;51.032;6.356;2024-01-07T13:35:00;0.50;99.90
10296;DHT22;5193;51.032;6.356;2024-01-07T13:37:26;0.50;99.90
10296;DHT22;5193;51.032;6.356;2024-01-07T13:39:51;0.50;99.90
10296;DHT22;5193;51.032;6.356;2024-01-07T13:42:17;0.40;99.90
10296;DHT22;5193;51.032;6.356;2024-01-07T13:44:42;0.40;99.90
10296;DHT22;5193;51.032;6.356;2024-01-07T13:47:13;0.40;99.90
10296;DHT22;5193;51.032;6.356;2024-01-07T13:49:46;0.40;99.90
10296;DHT22;5193;51.032;6.356;2024-01-07T13:52:12;0.30;99.90
10296;DHT22;5193;51.032;6.356;2024-01-07T13:54:38;0.30;99.90
10296;DHT22;5193;51.032;6.356;2024-01-07T13:57:05;0.30;99.90
10296;DHT22;5193;51.032;6.356;2024-01-07T13:59:32;0.30;99.90
10296;DHT22;5193;51.032;6.356;2024-01-07T14:02:10;0.30;99.90
10296;DHT22;5193;51.032;6.356;2024-01-07T14:04:40;0.30;99.90
10296;DHT22;5193;51.032;6.356;2024-01-07T14:07:05;0.30;99.90
10296;DHT22;5193;51.032;6.356;2024-01-07T14:09:31;0.30;99.90
10296;DHT22;5193;51.032;6.356;2024-01-07T14:11:58;0.30;99.90
10296;DHT22;5193;51.032;6.356;2024-01-07T14:14:23;0.30;99.90
10296;DHT22;5193;51.032;6.356;2024-01-07T14:16:49;0.30;99.90
10296;DHT22;5193;51.032;6.356;2024-01-07T14:19:15;0.20;99.90
10296;DHT22;5193;51.032;6.356;2024-01-07T14:21:42;0.20;99.90
10296;DHT22;5193;51.032;6.356;2024-01-07T14:24:07;0.20;99.90
10296;DHT22;5193;51.032;6.356;2024-01-07T14:26:33;0.20;99.90
10296;DHT22;5193;51.032;6.356;2024-01-07T14:28:58;0.20;99.90
10296;DHT22;5193;51.032;6.356;2024-01-07T14:31:49;0.20;99.90
10296;DHT22;5193;51.032;6.356;2024-01-07T14:34:15;0.20;99.90
10296;DHT22;5193;51.032;6.356;2024-01-07T14:36:41;0.10;99.90
10296;DHT22;5193;51.032;6.356;2024-01-07T14:39:09;0.10;99.90
10296;DHT22;5193;51.032;6.356;2024-01-07T14:41:38;0.10;99.90
10296;DHT22;5193;51.032;6.356;2024-01-07T14:44:04;0.00;99.90
10296;DHT22;5193;51.032;6.356;2024-01-07T14:46:29;0.00;99.90
10296;DHT22;5193;51.032;6.356;2024-01-07T14:48:56;0.00;99.90
10296;DHT22;5193;51.032;6.356;2024-01-07T14:51:22;0.00;99.90
10296;DHT22;5193;51.032;6.356;2024-01-07T14:53:47;0.00;99.90
10296;DHT22;5193;51.032;6.356;2024-01-07T14:56:19;0.00;99.90
10296;DHT22;5193;51.032;6.356;2024-01-07T14:58:46;0.00;99.90
10296;DHT22;5193;51.032;6.356;2024-01-07T15:01:13;0.00;99.90
10296;DHT22;5193;51.032;6.356;2024-01-07T15:03:39;-0.10;99.90
10296;DHT22;5193;51.032;6.356;2024-01-07T15:06:04;-0.10;99.90
10296;DHT22;5193;51.032;6.356;2024-01-07T15:08:30;0.00;99.90
10296;DHT22;5193;51.032;6.356;2024-01-07T15:10:57;0.00;99.90
10296;DHT22;5193;51.032;6.356;2024-01-07T15:13:23;-0.10;99.90
10296;DHT22;5193;51.032;6.356;2024-01-07T15:15:52;-0.10;99.90
10296;DHT22;5193;51.032;6.356;2024-01-07T15:18:18;-0.10;99.90
10296;DHT22;5193;51.032;6.356;2024-01-07T15:20:45;-0.10;99.90
10296;DHT22;5193;51.032;6.356;2024-01-07T15:23:17;-0.10;99.60
10296;DHT22;5193;51.032;6.356;2024-01-07T15:25:43;-0.20;94.90
10296;DHT22;5193;51.032;6.356;2024-01-07T15:28:12;-0.20;96.90
10296;DHT22;5193;51.032;6.356;2024-01-07T15:30:38;-0.20;96.40
10296;DHT22;5193;51.032;6.356;2024-01-07T15:33:04;-0.20;98.30
10296;DHT22;5193;51.032;6.356;2024-01-07T15:35:29;-0.20;95.00
10296;DHT22;5193;51.032;6.356;2024-01-07T15:37:58;-0.20;97.60
10296;DHT22;5193;51.032;6.356;2024-01-07T15:40:30;-0.20;92.60
10296;DHT22;5193;51.032;6.356;2024-01-07T15:42:56;-0.20;83.30
10296;DHT22;5193;51.032;6.356;2024-01-07T15:45:21;-0.20;86.70
10296;DHT22;5193;51.032;6.356;2024-01-07T15:47:47;-0.20;92.80
10296;DHT22;5193;51.032;6.356;2024-01-07T15:50:13;-0.20;92.90
10296;DHT22;5193;51.032;6.356;2024-01-07T15:52:39;-0.20;94.00
10296;DHT22;5193;51.032;6.356;2024-01-07T15:55:13;-0.20;92.20
10296;DHT22;5193;51.032;6.356;2024-01-07T15:57:41;-0.20;91.00
10296;DHT22;5193;51.032;6.356;2024-01-07T16:00:10;-0.20;82.80
10296;DHT22;5193;51.032;6.356;2024-01-07T16:02:36;-0.20;72.70
10296;DHT22;5193;51.032;6.356;2024-01-07T16:05:16;-0.20;80.70
10296;DHT22;5193;51.032;6.356;2024-01-07T16:07:45;-0.20;77.40
10296;DHT22;5193;51.032;6.356;2024-01-07T16:10:10;-0.20;80.80
10296;DHT22;5193;51.032;6.356;2024-01-07T16:12:37;-0.10;82.20
10296;DHT22;5193;51.032;6.356;2024-01-07T16:15:02;-0.20;90.20
10296;DHT22;5193;51.032;6.356;2024-01-07T16:17:34;-0.10;83.10
10296;DHT22;5193;51.032;6.356;2024-01-07T16:20:02;-0.10;90.00
10296;DHT22;5193;51.032;6.356;2024-01-07T16:22:28;-0.10;92.80